Time;durP1;ratioP1;P1;durP2;ratioP2;P2;SDS_P1;SDS_P2;PMS_P1;PMS_P2;Temp;Humidity;BMP_temperature;BMP_pressure;BME280_temperature;BME280_humidity;BME280_pressure;Samples;Min_cycle;Max_cycle;Signal;HPM_P1;HPM_P2
2024/01/06 00:02:05;;;;;;;16.15;4.07;;;;;;;;;;5032623;28;20021;-66
2024/01/06 00:04:31;;;;;;;7.35;3.00;;;;;;;;;;5033331;28;20063;-66
2024/01/06 00:06:56;;;;;;;4.93;2.92;;;;;;;;;;5033372;28;20035;-66
2024/01/06 00:09:21;;;;;;;5.03;2.37;;;;;;;;;;5032817;28;20037;-66
2024/01/06 00:11:46;;;;;;;6.83;2.27;;;;;;;;;;5033343;28;20289;-66
2024/01/06 00:14:11;;;;;;;2.77;2.00;;;;;;;;;;5033170;28;20301;-66
2024/01/06 00:16:37;;;;;;;6.17;2.93;;;;;;;;;;5032766;28;20397;-66
2024/01/06 00:19:02;;;;;;;8.00;3.03;;;;;;;;;;5033280;28;20717;-66
2024/01/06 00:21:27;;;;;;;6.03;2.67;;;;;;;;;;5033061;28;20267;-66
2024/01/06 00:23:52;;;;;;;13.60;3.20;;;;;;;;;;5031687;28;20025;-66
2024/01/06 00:26:18;;;;;;;9.45;3.28;;;;;;;;;;5032890;28;20489;-66
2024/01/06 00:28:43;;;;;;;5.73;2.43;;;;;;;;;;5033004;28;20018;-66
2024/01/06 00:31:09;;;;;;;6.07;2.65;;;;;;;;;;5033004;28;20316;-66
2024/01/06 00:33:34;;;;;;;9.10;2.42;;;;;;;;;;5031728;28;20025;-66
2024/01/06 00:35:59;;;;;;;6.43;2.47;;;;;;;;;;5033039;28;20025;-66
2024/01/06 00:38:24;;;;;;;3.45;2.35;;;;;;;;;;5032584;28;20314;-66
2024/01/06 00:40:50;;;;;;;3.92;1.92;;;;;;;;;;5031441;28;20029;-66
2024/01/06 00:43:15;;;;;;;4.27;2.13;;;;;;;;;;5032746;28;20428;-66
2024/01/06 00:45:40;;;;;;;6.25;2.45;;;;;;;;;;5031744;28;20274;-66
2024/01/06 00:48:05;;;;;;;8.70;2.43;;;;;;;;;;5032395;28;20022;-66
2024/01/06 00:50:31;;;;;;;4.22;2.53;;;;;;;;;;5032754;28;20297;-66
2024/01/06 00:52:56;;;;;;;7.33;2.67;;;;;;;;;;5032127;28;20461;-66
2024/01/06 00:55:22;;;;;;;6.38;2.65;;;;;;;;;;5032473;28;20782;-66
2024/01/06 00:57:47;;;;;;;8.07;2.47;;;;;;;;;;5032647;28;20037;-66
2024/01/06 01:00:13;;;;;;;7.53;2.63;;;;;;;;;;5031965;28;20103;-66
2024/01/06 01:02:38;;;;;;;4.75;2.53;;;;;;;;;;5025592;28;20028;-66
2024/01/06 01:05:03;;;;;;;5.72;2.50;;;;;;;;;;5028005;28;20017;-66
2024/01/06 01:07:29;;;;;;;5.93;2.50;;;;;;;;;;5032390;28;20021;-66
2024/01/06 01:09:56;;;;;;;7.27;2.83;;;;;;;;;;5032476;28;20028;-66
2024/01/06 01:12:21;;;;;;;4.70;2.60;;;;;;;;;;5031940;28;20262;-66
2024/01/06 01:14:46;;;;;;;3.53;2.00;;;;;;;;;;5031954;28;20041;-66
2024/01/06 01:17:11;;;;;;;3.85;2.03;;;;;;;;;;5030444;28;20045;-66
2024/01/06 01:19:37;;;;;;;7.53;2.97;;;;;;;;;;5031950;28;20147;-66
2024/01/06 01:22:02;;;;;;;9.93;2.50;;;;;;;;;;5032114;28;20340;-66
2024/01/06 01:24:28;;;;;;;5.20;2.20;;;;;;;;;;5030393;28;20753;-66
2024/01/06 01:26:53;;;;;;;8.47;2.60;;;;;;;;;;5031667;28;20022;-66
2024/01/06 01:29:20;;;;;;;8.47;2.43;;;;;;;;;;5032218;28;20267;-66
2024/01/06 01:31:45;;;;;;;5.53;2.53;;;;;;;;;;5032384;28;20693;-66
2024/01/06 01:34:10;;;;;;;5.90;2.45;;;;;;;;;;5031740;28;20105;-66
2024/01/06 01:36:35;;;;;;;5.20;2.13;;;;;;;;;;5032150;28;20485;-68
2024/01/06 01:39:00;;;;;;;3.97;2.20;;;;;;;;;;5024608;28;20268;-68
2024/01/06 01:41:26;;;;;;;7.43;2.50;;;;;;;;;;5030805;28;20026;-68
2024/01/06 01:43:58;;;;;;;5.68;2.20;;;;;;;;;;5032008;28;20278;-68
2024/01/06 01:46:27;;;;;;;5.80;2.40;;;;;;;;;;5031449;28;20025;-68
2024/01/06 01:48:54;;;;;;;4.45;2.47;;;;;;;;;;5031756;28;20559;-68
2024/01/06 01:51:20;;;;;;;5.65;2.47;;;;;;;;;;5031919;28;20037;-68
2024/01/06 01:53:45;;;;;;;4.78;2.60;;;;;;;;;;5031086;28;20021;-68
2024/01/06 01:56:10;;;;;;;6.87;2.80;;;;;;;;;;5032040;28;20021;-68
2024/01/06 01:58:36;;;;;;;9.07;2.38;;;;;;;;;;5034586;28;20278;-67
2024/01/06 02:01:02;;;;;;;7.55;2.85;;;;;;;;;;5035530;28;20493;-68
2024/01/06 02:03:29;;;;;;;6.82;2.63;;;;;;;;;;5035841;28;20029;-68
2024/01/06 02:05:54;;;;;;;4.28;2.50;;;;;;;;;;5035595;28;20041;-68
2024/01/06 02:08:19;;;;;;;4.53;2.27;;;;;;;;;;5035003;28;20030;-68
2024/01/06 02:10:44;;;;;;;5.78;2.72;;;;;;;;;;5033610;28;20341;-68
2024/01/06 02:13:10;;;;;;;9.32;2.67;;;;;;;;;;5034718;28;20365;-68
2024/01/06 02:15:36;;;;;;;4.18;2.25;;;;;;;;;;5034968;28;20558;-68
2024/01/06 02:18:01;;;;;;;6.70;2.75;;;;;;;;;;5035890;28;20140;-68
2024/01/06 02:20:27;;;;;;;9.60;2.95;;;;;;;;;;5035240;28;20377;-68
2024/01/06 02:22:52;;;;;;;5.22;2.67;;;;;;;;;;5035169;28;20390;-68
2024/01/06 02:25:18;;;;;;;5.85;2.40;;;;;;;;;;5034085;28;20026;-68
2024/01/06 02:27:43;;;;;;;7.05;2.53;;;;;;;;;;5035302;28;20025;-68
2024/01/06 02:30:09;;;;;;;4.43;2.27;;;;;;;;;;5034296;28;20115;-68
2024/01/06 02:32:34;;;;;;;6.57;2.15;;;;;;;;;;5035244;28;20690;-68
2024/01/06 02:34:59;;;;;;;7.97;2.05;;;;;;;;;;5035024;28;20067;-68
2024/01/06 02:37:24;;;;;;;5.23;2.70;;;;;;;;;;5034848;28;20469;-68
2024/01/06 02:39:50;;;;;;;5.07;2.47;;;;;;;;;;5035172;28;20271;-68
2024/01/06 02:42:15;;;;;;;5.73;2.20;;;;;;;;;;5033179;28;20282;-67
2024/01/06 02:44:41;;;;;;;3.90;2.30;;;;;;;;;;5035104;28;20270;-68
2024/01/06 02:47:06;;;;;;;5.67;2.90;;;;;;;;;;5035043;28;20492;-66
2024/01/06 02:49:31;;;;;;;6.30;2.75;;;;;;;;;;5033114;28;20758;-66
2024/01/06 02:51:56;;;;;;;7.80;2.60;;;;;;;;;;5035110;28;20016;-66
2024/01/06 02:54:21;;;;;;;9.33;2.80;;;;;;;;;;5034934;28;20025;-66
2024/01/06 02:56:47;;;;;;;8.40;2.83;;;;;;;;;;5033519;28;20263;-66
2024/01/06 02:59:12;;;;;;;5.50;2.53;;;;;;;;;;5034740;28;20301;-66
2024/01/06 03:01:37;;;;;;;11.17;2.70;;;;;;;;;;5034594;28;20282;-66
2024/01/06 03:04:02;;;;;;;8.80;2.70;;;;;;;;;;5034371;28;20270;-66
2024/01/06 03:06:28;;;;;;;7.75;2.55;;;;;;;;;;5034599;28;20289;-66
2024/01/06 03:08:53;;;;;;;9.43;2.85;;;;;;;;;;5025382;28;20026;-66
2024/01/06 03:11:18;;;;;;;6.33;2.50;;;;;;;;;;5032869;28;20020;-66
2024/01/06 03:13:43;;;;;;;5.33;2.60;;;;;;;;;;5034118;28;20622;-66
2024/01/06 03:16:11;;;;;;;5.65;2.63;;;;;;;;;;5034269;28;20301;-66
2024/01/06 03:18:36;;;;;;;5.45;2.88;;;;;;;;;;5033846;28;20022;-66
2024/01/06 03:21:01;;;;;;;5.97;2.70;;;;;;;;;;5034436;28;20025;-66
2024/01/06 03:23:26;;;;;;;8.60;2.83;;;;;;;;;;5033852;28;20277;-66
2024/01/06 03:25:51;;;;;;;6.23;2.33;;;;;;;;;;5033914;28;20025;-66
2024/01/06 03:28:17;;;;;;;5.53;2.87;;;;;;;;;;5034279;28;20271;-66
2024/01/06 03:30:42;;;;;;;4.17;2.30;;;;;;;;;;5032835;28;20263;-66
2024/01/06 03:33:07;;;;;;;5.90;2.17;;;;;;;;;;5032331;28;20254;-66
2024/01/06 03:35:32;;;;;;;4.03;2.87;;;;;;;;;;5028500;28;20684;-66
2024/01/06 03:37:57;;;;;;;10.77;2.57;;;;;;;;;;5031962;28;20296;-66
2024/01/06 03:40:23;;;;;;;5.43;2.47;;;;;;;;;;5033616;28;20608;-66
2024/01/06 03:42:48;;;;;;;9.23;3.22;;;;;;;;;;5033531;28;20626;-66
2024/01/06 03:45:13;;;;;;;4.93;2.73;;;;;;;;;;5032656;28;20030;-66
2024/01/06 03:47:38;;;;;;;4.03;2.70;;;;;;;;;;5033264;28;20270;-66
2024/01/06 03:50:04;;;;;;;8.27;2.60;;;;;;;;;;5033691;28;20266;-66
2024/01/06 03:52:29;;;;;;;9.45;3.08;;;;;;;;;;5033206;28;20021;-66
2024/01/06 03:54:54;;;;;;;6.97;2.70;;;;;;;;;;5033507;28;20017;-66
2024/01/06 03:57:20;;;;;;;5.60;2.87;;;;;;;;;;5032470;28;20022;-68
2024/01/06 03:59:45;;;;;;;9.03;3.20;;;;;;;;;;5032093;28;20267;-68
2024/01/06 04:02:10;;;;;;;8.30;3.33;;;;;;;;;;5032446;28;20265;-68
2024/01/06 04:04:35;;;;;;;5.97;2.30;;;;;;;;;;5033556;28;20289;-68
2024/01/06 04:07:01;;;;;;;4.07;2.57;;;;;;;;;;5033001;28;20363;-68
2024/01/06 04:09:26;;;;;;;5.15;3.13;;;;;;;;;;5032658;28;20683;-68
2024/01/06 04:11:52;;;;;;;4.85;2.58;;;;;;;;;;5032947;28;20029;-68
2024/01/06 04:14:17;;;;;;;10.70;3.73;;;;;;;;;;5032244;28;20025;-68
2024/01/06 04:16:42;;;;;;;12.07;3.37;;;;;;;;;;5030995;28;20274;-68
2024/01/06 04:19:08;;;;;;;7.53;2.67;;;;;;;;;;5033273;28;20258;-68
2024/01/06 04:21:33;;;;;;;7.80;2.83;;;;;;;;;;5031525;28;20064;-68
2024/01/06 04:23:59;;;;;;;5.80;2.67;;;;;;;;;;5032835;28;20056;-68
2024/01/06 04:26:25;;;;;;;6.93;3.45;;;;;;;;;;5032722;28;20305;-68
2024/01/06 04:28:50;;;;;;;5.43;2.97;;;;;;;;;;5031895;28;20096;-68
2024/01/06 04:31:15;;;;;;;6.28;2.90;;;;;;;;;;5032772;28;20104;-68
2024/01/06 04:33:40;;;;;;;4.37;2.40;;;;;;;;;;5032684;28;20032;-68
2024/01/06 04:36:07;;;;;;;8.23;3.27;;;;;;;;;;5031827;28;20267;-68
2024/01/06 04:38:32;;;;;;;4.85;2.92;;;;;;;;;;5032460;28;20290;-68
2024/01/06 04:40:57;;;;;;;8.90;2.87;;;;;;;;;;5032168;28;20021;-68
2024/01/06 04:43:22;;;;;;;10.37;2.97;;;;;;;;;;5032398;28;20630;-68
2024/01/06 04:45:47;;;;;;;9.97;3.53;;;;;;;;;;5032305;28;20282;-68
2024/01/06 04:48:13;;;;;;;4.68;3.25;;;;;;;;;;5031641;28;20631;-68
2024/01/06 04:50:38;;;;;;;4.72;2.67;;;;;;;;;;5032167;28;20021;-68
2024/01/06 04:53:03;;;;;;;8.00;3.10;;;;;;;;;;5032435;28;20499;-68
2024/01/06 04:55:28;;;;;;;8.80;3.07;;;;;;;;;;5031503;28;20273;-68
2024/01/06 04:57:54;;;;;;;7.10;3.03;;;;;;;;;;5032381;28;20264;-68
2024/01/06 05:00:19;;;;;;;9.07;3.28;;;;;;;;;;5032417;28;20349;-68
2024/01/06 05:02:44;;;;;;;7.32;3.53;;;;;;;;;;5031598;28;20057;-68
2024/01/06 05:05:09;;;;;;;5.43;3.20;;;;;;;;;;5032140;28;20025;-68
2024/01/06 05:07:35;;;;;;;5.30;3.47;;;;;;;;;;5031925;28;20076;-66
2024/01/06 05:10:00;;;;;;;7.15;3.28;;;;;;;;;;5031921;28;20302;-66
2024/01/06 05:12:25;;;;;;;7.80;3.27;;;;;;;;;;5031993;28;20370;-65
2024/01/06 05:14:50;;;;;;;7.03;3.37;;;;;;;;;;5031390;28;20622;-66
2024/01/06 05:17:15;;;;;;;6.25;3.45;;;;;;;;;;5031984;28;20291;-66
2024/01/06 05:19:41;;;;;;;7.73;3.50;;;;;;;;;;5031995;28;20022;-66
2024/01/06 05:22:06;;;;;;;6.60;3.45;;;;;;;;;;5031133;28;20290;-66
2024/01/06 05:24:31;;;;;;;10.48;3.65;;;;;;;;;;5031976;28;20144;-66
2024/01/06 05:26:57;;;;;;;8.77;3.40;;;;;;;;;;5031328;28;20097;-66
2024/01/06 05:29:22;;;;;;;6.80;3.40;;;;;;;;;;5028431;28;20401;-66
2024/01/06 05:31:48;;;;;;;7.65;3.92;;;;;;;;;;5029438;28;20337;-66
2024/01/06 05:34:14;;;;;;;5.75;3.40;;;;;;;;;;5033977;28;20029;-66
2024/01/06 05:36:39;;;;;;;8.32;3.58;;;;;;;;;;5034469;28;20030;-66
2024/01/06 05:39:04;;;;;;;7.68;3.33;;;;;;;;;;5034314;28;20465;-66
2024/01/06 05:41:30;;;;;;;7.33;4.13;;;;;;;;;;5034224;28;20055;-66
2024/01/06 05:43:56;;;;;;;9.02;4.05;;;;;;;;;;5033974;28;20309;-66
2024/01/06 05:46:22;;;;;;;6.18;3.83;;;;;;;;;;5032448;28;20104;-66
2024/01/06 05:48:47;;;;;;;6.13;3.90;;;;;;;;;;5034609;28;20021;-66
2024/01/06 05:51:12;;;;;;;8.02;4.20;;;;;;;;;;5033906;28;20505;-66
2024/01/06 05:53:37;;;;;;;6.50;4.17;;;;;;;;;;5034032;28;20063;-66
2024/01/06 05:56:03;;;;;;;6.80;4.00;;;;;;;;;;5034209;28;20116;-66
2024/01/06 05:58:28;;;;;;;7.18;3.95;;;;;;;;;;5033876;28;20429;-66
2024/01/06 06:00:53;;;;;;;7.83;4.30;;;;;;;;;;5034212;28;20025;-66
2024/01/06 06:03:18;;;;;;;8.80;3.53;;;;;;;;;;5034510;28;20267;-66
2024/01/06 06:05:44;;;;;;;5.73;3.63;;;;;;;;;;5033698;28;20385;-66
2024/01/06 06:08:10;;;;;;;9.43;3.88;;;;;;;;;;5033909;28;20258;-66
2024/01/06 06:10:51;;;;;;;4.78;3.05;;;;;;;;;;5034349;28;20104;-66
2024/01/06 06:13:16;;;;;;;6.60;3.38;;;;;;;;;;5033955;28;20025;-66
2024/01/06 06:15:42;;;;;;;7.95;3.72;;;;;;;;;;5034641;28;20120;-67
2024/01/06 06:18:07;;;;;;;7.00;4.00;;;;;;;;;;5033603;28;20013;-68
2024/01/06 06:20:32;;;;;;;8.27;3.93;;;;;;;;;;5034134;28;20274;-68
2024/01/06 06:22:57;;;;;;;8.65;4.10;;;;;;;;;;5033902;28;20480;-68
2024/01/06 06:25:22;;;;;;;7.83;4.13;;;;;;;;;;5033904;28;20033;-68
2024/01/06 06:27:48;;;;;;;4.50;3.50;;;;;;;;;;5033590;28;20282;-68
2024/01/06 06:30:13;;;;;;;9.33;4.30;;;;;;;;;;5033229;28;20274;-67
2024/01/06 06:32:38;;;;;;;7.13;4.20;;;;;;;;;;5033710;28;20259;-68
2024/01/06 06:35:04;;;;;;;9.33;5.10;;;;;;;;;;5033517;28;20071;-67
2024/01/06 06:37:29;;;;;;;6.82;3.92;;;;;;;;;;5033795;28;20278;-68
2024/01/06 06:39:54;;;;;;;8.03;4.10;;;;;;;;;;5033065;28;20030;-68
2024/01/06 06:42:19;;;;;;;8.67;4.57;;;;;;;;;;5033848;28;20294;-68
2024/01/06 06:44:45;;;;;;;7.22;4.78;;;;;;;;;;5032086;28;20275;-67
2024/01/06 06:47:10;;;;;;;7.83;5.10;;;;;;;;;;5033325;28;20051;-68
2024/01/06 06:49:35;;;;;;;7.23;4.17;;;;;;;;;;5033275;28;20331;-68
2024/01/06 06:52:00;;;;;;;13.77;5.43;;;;;;;;;;5032868;28;20328;-68
2024/01/06 06:54:25;;;;;;;8.37;4.80;;;;;;;;;;5033449;28;20341;-68
2024/01/06 06:56:51;;;;;;;7.03;4.75;;;;;;;;;;5033438;28;20270;-68
2024/01/06 06:59:16;;;;;;;11.47;4.83;;;;;;;;;;5032886;28;20484;-68
2024/01/06 07:01:41;;;;;;;9.27;4.65;;;;;;;;;;5031878;28;20750;-68
2024/01/06 07:04:06;;;;;;;6.43;4.30;;;;;;;;;;5031716;28;20025;-68
2024/01/06 07:06:32;;;;;;;6.70;4.37;;;;;;;;;;5032570;28;20290;-68
2024/01/06 07:08:57;;;;;;;9.90;5.23;;;;;;;;;;5033217;28;20267;-68
2024/01/06 07:11:22;;;;;;;8.70;5.15;;;;;;;;;;5032980;28;20754;-67
2024/01/06 07:13:47;;;;;;;11.32;5.07;;;;;;;;;;5032414;28;20018;-68
2024/01/06 07:16:13;;;;;;;8.40;4.82;;;;;;;;;;5031771;28;20041;-68
2024/01/06 07:18:38;;;;;;;9.50;4.57;;;;;;;;;;5032433;28;20055;-68
2024/01/06 07:21:06;;;;;;;7.50;4.50;;;;;;;;;;5033120;28;20021;-68
2024/01/06 07:23:32;;;;;;;7.95;5.20;;;;;;;;;;5032963;28;20048;-68
2024/01/06 07:25:57;;;;;;;6.97;4.88;;;;;;;;;;5032182;28;20061;-68
2024/01/06 07:28:23;;;;;;;11.50;5.50;;;;;;;;;;5032195;28;20112;-68
2024/01/06 07:30:48;;;;;;;8.90;4.78;;;;;;;;;;5032814;28;20024;-68
2024/01/06 07:33:13;;;;;;;10.67;5.37;;;;;;;;;;5032267;28;20010;-68
2024/01/06 07:35:43;;;;;;;7.83;5.30;;;;;;;;;;5032257;28;20569;-68
2024/01/06 07:38:08;;;;;;;8.98;5.85;;;;;;;;;;5032580;28;20275;-68
2024/01/06 07:40:33;;;;;;;9.90;5.35;;;;;;;;;;5031953;28;20043;-68
2024/01/06 07:42:59;;;;;;;7.35;5.18;;;;;;;;;;5032475;28;20469;-68
2024/01/06 07:45:24;;;;;;;11.43;5.90;;;;;;;;;;5031686;28;20033;-68
2024/01/06 07:47:49;;;;;;;8.87;5.13;;;;;;;;;;5032322;28;20289;-68
2024/01/06 07:50:14;;;;;;;9.55;5.18;;;;;;;;;;5032607;28;20266;-68
2024/01/06 07:52:40;;;;;;;12.23;5.53;;;;;;;;;;5031565;28;20108;-68
2024/01/06 07:55:05;;;;;;;6.60;4.82;;;;;;;;;;5032265;28;20343;-68
2024/01/06 07:57:30;;;;;;;10.10;5.80;;;;;;;;;;5032252;28;20520;-68
2024/01/06 07:59:55;;;;;;;8.43;5.63;;;;;;;;;;5031547;28;20409;-68
2024/01/06 08:02:21;;;;;;;7.13;5.63;;;;;;;;;;5032169;28;20742;-68
2024/01/06 08:04:46;;;;;;;9.60;5.43;;;;;;;;;;5031981;28;20265;-68
2024/01/06 08:07:13;;;;;;;8.68;5.13;;;;;;;;;;5031300;28;20274;-68
2024/01/06 08:09:38;;;;;;;8.85;5.95;;;;;;;;;;5031887;28;20362;-68
2024/01/06 08:12:04;;;;;;;9.60;5.63;;;;;;;;;;5031587;28;20072;-68
2024/01/06 08:14:29;;;;;;;10.07;5.03;;;;;;;;;;5031990;28;20730;-68
2024/01/06 08:16:54;;;;;;;8.60;5.47;;;;;;;;;;5031898;28;20453;-68
2024/01/06 08:19:19;;;;;;;6.10;5.05;;;;;;;;;;5030598;28;20826;-68
2024/01/06 08:21:45;;;;;;;8.57;4.78;;;;;;;;;;5031821;28;20029;-68
2024/01/06 08:24:10;;;;;;;10.07;4.88;;;;;;;;;;5031875;28;20057;-68
2024/01/06 08:26:35;;;;;;;6.97;5.13;;;;;;;;;;5030858;28;20022;-68
2024/01/06 08:29:00;;;;;;;7.90;5.23;;;;;;;;;;5031617;28;20466;-68
2024/01/06 08:31:25;;;;;;;8.60;5.17;;;;;;;;;;5031782;28;20263;-68
2024/01/06 08:33:51;;;;;;;6.37;4.37;;;;;;;;;;5030668;28;20274;-68
2024/01/06 08:36:16;;;;;;;7.07;4.87;;;;;;;;;;5031759;28;20278;-68
2024/01/06 08:38:41;;;;;;;5.95;4.75;;;;;;;;;;5031619;28;20037;-68
2024/01/06 08:41:06;;;;;;;8.43;5.10;;;;;;;;;;5030662;28;20033;-68
2024/01/06 08:43:32;;;;;;;7.40;5.23;;;;;;;;;;5031403;28;20270;-68
2024/01/06 08:45:57;;;;;;;7.93;4.82;;;;;;;;;;5030948;28;20397;-68
2024/01/06 08:48:22;;;;;;;9.97;6.43;;;;;;;;;;5030773;28;20389;-68
2024/01/06 08:50:47;;;;;;;8.60;5.43;;;;;;;;;;5031531;28;20281;-68
2024/01/06 08:53:13;;;;;;;8.47;5.77;;;;;;;;;;5031212;28;20335;-68
2024/01/06 08:55:38;;;;;;;8.48;5.20;;;;;;;;;;5030415;28;20047;-70
2024/01/06 08:58:03;;;;;;;9.80;6.07;;;;;;;;;;5027114;28;20022;-69
2024/01/06 09:00:29;;;;;;;8.13;5.63;;;;;;;;;;5030245;28;20028;-69
2024/01/06 09:02:54;;;;;;;8.65;6.00;;;;;;;;;;5031268;28;20017;-70
2024/01/06 09:05:19;;;;;;;13.33;6.53;;;;;;;;;;5031156;28;20052;-69
2024/01/06 09:07:49;;;;;;;9.10;5.57;;;;;;;;;;5030051;28;20301;-69
2024/01/06 09:10:15;;;;;;;9.00;5.78;;;;;;;;;;5030898;28;20294;-69
2024/01/06 09:12:40;;;;;;;10.95;6.55;;;;;;;;;;5030421;28;20053;-69
2024/01/06 09:15:06;;;;;;;7.20;5.67;;;;;;;;;;5029063;28;20022;-68
2024/01/06 09:17:32;;;;;;;13.02;6.50;;;;;;;;;;5023493;28;20289;-70
2024/01/06 09:19:58;;;;;;;8.95;6.63;;;;;;;;;;5030897;28;20401;-70
2024/01/06 09:22:23;;;;;;;9.77;5.95;;;;;;;;;;5029656;28;20033;-70
2024/01/06 09:24:49;;;;;;;9.65;6.85;;;;;;;;;;5029287;28;20086;-74
2024/01/06 09:27:14;;;;;;;10.20;6.15;;;;;;;;;;5031210;28;20021;-73
2024/01/06 09:29:40;;;;;;;10.25;5.93;;;;;;;;;;5030878;28;20026;-74
2024/01/06 09:32:05;;;;;;;12.53;5.33;;;;;;;;;;5030763;28;20492;-69
2024/01/06 09:34:30;;;;;;;10.25;6.07;;;;;;;;;;5029976;28;20623;-69
2024/01/06 09:36:55;;;;;;;9.77;6.10;;;;;;;;;;5031394;28;20029;-69
2024/01/06 09:39:20;;;;;;;9.15;5.93;;;;;;;;;;5030933;28;20080;-69
2024/01/06 09:41:46;;;;;;;11.37;5.93;;;;;;;;;;5030314;28;20029;-68
2024/01/06 09:44:11;;;;;;;10.37;5.63;;;;;;;;;;5031218;28;20274;-68
2024/01/06 09:46:38;;;;;;;7.73;5.70;;;;;;;;;;5030322;28;20291;-65
2024/01/06 09:49:03;;;;;;;8.85;6.35;;;;;;;;;;5029981;28;20820;-65
2024/01/06 09:51:28;;;;;;;10.80;6.70;;;;;;;;;;5031729;28;20021;-65
2024/01/06 09:53:58;;;;;;;12.13;5.70;;;;;;;;;;5030767;28;20259;-65
2024/01/06 09:56:24;;;;;;;8.98;6.47;;;;;;;;;;5027395;28;20133;-65
2024/01/06 09:58:49;;;;;;;12.90;6.38;;;;;;;;;;5031222;28;20376;-65
2024/01/06 10:01:15;;;;;;;9.82;5.90;;;;;;;;;;5030238;28;20120;-65
2024/01/06 10:03:40;;;;;;;8.80;5.93;;;;;;;;;;5030214;28;20101;-75
2024/01/06 10:06:06;;;;;;;7.43;5.22;;;;;;;;;;5029311;28;20444;-76
2024/01/06 10:08:34;;;;;;;10.38;6.10;;;;;;;;;;5030824;28;20016;-76
2024/01/06 10:11:00;;;;;;;14.10;6.57;;;;;;;;;;5028943;28;20052;-76
2024/01/06 10:13:25;;;;;;;12.85;6.65;;;;;;;;;;5029222;28;20061;-76
2024/01/06 10:15:51;;;;;;;8.88;5.65;;;;;;;;;;5028469;28;20049;-75
2024/01/06 10:18:16;;;;;;;10.60;5.82;;;;;;;;;;5031266;28;20026;-64
2024/01/06 10:20:41;;;;;;;13.77;5.30;;;;;;;;;;5034249;28;20010;-65
2024/01/06 10:23:07;;;;;;;9.45;5.63;;;;;;;;;;5028360;28;20022;-64
2024/01/06 10:25:32;;;;;;;8.68;5.38;;;;;;;;;;5034773;28;20137;-64
2024/01/06 10:28:00;;;;;;;8.20;5.20;;;;;;;;;;5034468;28;20366;-65
2024/01/06 10:30:25;;;;;;;7.32;5.18;;;;;;;;;;5035231;28;20726;-64
2024/01/06 10:32:51;;;;;;;12.83;5.67;;;;;;;;;;5034246;28;20075;-64
2024/01/06 10:35:17;;;;;;;13.23;5.53;;;;;;;;;;5034252;28;20079;-64
2024/01/06 10:37:42;;;;;;;8.13;5.43;;;;;;;;;;5035286;28;20100;-64
2024/01/06 10:40:08;;;;;;;9.75;5.43;;;;;;;;;;5034228;28;20025;-65
2024/01/06 10:42:33;;;;;;;11.88;5.45;;;;;;;;;;5034296;28;20048;-65
2024/01/06 10:44:59;;;;;;;9.52;5.07;;;;;;;;;;5034489;28;20425;-64
2024/01/06 10:47:26;;;;;;;10.38;5.80;;;;;;;;;;5034040;28;20029;-64
2024/01/06 10:49:54;;;;;;;6.82;5.13;;;;;;;;;;5034798;28;20484;-65
2024/01/06 10:52:19;;;;;;;7.25;5.13;;;;;;;;;;5034850;28;20470;-64
2024/01/06 10:54:49;;;;;;;9.23;5.68;;;;;;;;;;5033807;28;20028;-64
2024/01/06 10:57:15;;;;;;;8.77;5.68;;;;;;;;;;5029867;28;20397;-64
2024/01/06 10:59:40;;;;;;;11.25;5.20;;;;;;;;;;5033572;28;20036;-64
2024/01/06 11:02:06;;;;;;;12.43;5.95;;;;;;;;;;5034600;28;20036;-77
2024/01/06 11:04:31;;;;;;;10.18;5.25;;;;;;;;;;5034752;28;20033;-77
2024/01/06 11:06:57;;;;;;;9.83;6.10;;;;;;;;;;5033110;28;20029;-77
2024/01/06 11:09:31;;;;;;;9.98;5.88;;;;;;;;;;5034238;28;20266;-78
2024/01/06 11:11:57;;;;;;;9.30;5.30;;;;;;;;;;5034784;28;20505;-78
2024/01/06 11:14:24;;;;;;;10.48;5.68;;;;;;;;;;5034849;28;20415;-78
2024/01/06 11:16:50;;;;;;;8.00;5.00;;;;;;;;;;5035208;28;20558;-77
2024/01/06 11:19:44;;;;;;;10.68;6.40;;;;;;;;;;5032077;28;20458;-78
2024/01/06 11:22:19;;;;;;;9.50;5.40;;;;;;;;;;5015876;28;20040;-78
2024/01/06 11:24:51;;;;;;;8.07;5.13;;;;;;;;;;5032958;28;20025;-79
2024/01/06 11:27:21;;;;;;;8.32;5.75;;;;;;;;;;5032462;28;20010;-77
2024/01/06 11:29:47;;;;;;;8.13;4.88;;;;;;;;;;5025728;28;20051;-76
2024/01/06 11:32:21;;;;;;;7.00;4.50;;;;;;;;;;5032669;28;20018;-79
2024/01/06 11:34:53;;;;;;;7.70;4.88;;;;;;;;;;5032491;28;20022;-79
2024/01/06 11:37:38;;;;;;;9.15;5.13;;;;;;;;;;5033703;28;20048;-79
2024/01/06 11:40:04;;;;;;;10.88;5.70;;;;;;;;;;5026244;28;20075;-79
2024/01/06 11:42:33;;;;;;;10.93;5.50;;;;;;;;;;5033712;28;20506;-78
2024/01/06 11:45:01;;;;;;;8.65;5.20;;;;;;;;;;5033115;28;20105;-80
2024/01/06 11:47:28;;;;;;;6.88;5.15;;;;;;;;;;5032770;28;20022;-80
2024/01/06 11:49:55;;;;;;;7.80;4.57;;;;;;;;;;5033485;28;20014;-78
2024/01/06 11:52:20;;;;;;;8.70;5.32;;;;;;;;;;5033447;28;20017;-80
2024/01/06 11:54:45;;;;;;;11.27;5.47;;;;;;;;;;5033674;28;20135;-80
2024/01/06 11:57:11;;;;;;;8.10;5.18;;;;;;;;;;5032864;28;20104;-80
2024/01/06 11:59:36;;;;;;;11.50;5.13;;;;;;;;;;5033289;28;20029;-80
2024/01/06 12:02:01;;;;;;;6.47;4.60;;;;;;;;;;5032333;28;20273;-80
2024/01/06 12:04:27;;;;;;;8.60;5.10;;;;;;;;;;5032771;28;20028;-79
2024/01/06 12:06:54;;;;;;;9.10;5.28;;;;;;;;;;5033442;28;20028;-75
2024/01/06 12:09:19;;;;;;;7.60;5.25;;;;;;;;;;5033025;28;20013;-75
2024/01/06 12:11:46;;;;;;;8.35;5.25;;;;;;;;;;5031131;28;20388;-74
2024/01/06 12:14:11;;;;;;;5.95;4.40;;;;;;;;;;5032063;28;20030;-75
2024/01/06 12:16:37;;;;;;;8.13;4.68;;;;;;;;;;5032759;28;20052;-74
2024/01/06 12:19:03;;;;;;;6.50;4.27;;;;;;;;;;5031460;28;20528;-74
2024/01/06 12:21:29;;;;;;;6.40;3.78;;;;;;;;;;5031580;28;20281;-74
2024/01/06 12:23:54;;;;;;;8.00;4.15;;;;;;;;;;5031815;28;20029;-74
2024/01/06 12:26:19;;;;;;;9.25;4.53;;;;;;;;;;5031111;28;20132;-74
2024/01/06 12:28:45;;;;;;;6.75;4.20;;;;;;;;;;5031537;28;20028;-76
2024/01/06 12:31:12;;;;;;;7.38;3.78;;;;;;;;;;5031767;28;20024;-66
2024/01/06 12:33:37;;;;;;;6.78;4.13;;;;;;;;;;5032684;28;20029;-66
2024/01/06 12:36:03;;;;;;;7.20;4.07;;;;;;;;;;5033041;28;20029;-66
2024/01/06 12:38:29;;;;;;;6.65;4.03;;;;;;;;;;5031185;28;20065;-66
2024/01/06 12:40:55;;;;;;;5.65;3.58;;;;;;;;;;5032640;28;20067;-66
2024/01/06 12:43:20;;;;;;;5.28;3.70;;;;;;;;;;5030916;28;20071;-66
2024/01/06 12:45:45;;;;;;;7.20;4.10;;;;;;;;;;5032058;28;21718;-66
2024/01/06 12:48:11;;;;;;;8.20;4.00;;;;;;;;;;5032397;28;20255;-66
2024/01/06 12:50:36;;;;;;;7.90;4.10;;;;;;;;;;5031928;28;20275;-66
2024/01/06 12:53:02;;;;;;;5.77;3.70;;;;;;;;;;5032333;28;20021;-66
2024/01/06 12:55:27;;;;;;;5.05;3.88;;;;;;;;;;5032364;28;20365;-67
2024/01/06 12:57:52;;;;;;;5.68;3.50;;;;;;;;;;5032202;28;20060;-66
2024/01/06 13:00:18;;;;;;;5.97;2.90;;;;;;;;;;5031436;28;20029;-66
2024/01/06 13:02:43;;;;;;;3.92;3.22;;;;;;;;;;5032000;28;20017;-66
2024/01/06 13:05:09;;;;;;;8.93;3.37;;;;;;;;;;5030673;28;20030;-66
2024/01/06 13:07:34;;;;;;;5.03;3.08;;;;;;;;;;5033672;28;20336;-66
2024/01/06 13:09:59;;;;;;;5.63;3.17;;;;;;;;;;5031436;28;20354;-66
2024/01/06 13:12:25;;;;;;;4.60;3.28;;;;;;;;;;5031365;28;20670;-66
2024/01/06 13:14:50;;;;;;;5.47;3.38;;;;;;;;;;5032044;28;20021;-66
2024/01/06 13:17:16;;;;;;;4.53;3.10;;;;;;;;;;5031960;28;20466;-66
2024/01/06 13:19:41;;;;;;;5.25;3.40;;;;;;;;;;5031080;28;20112;-66
2024/01/06 13:22:07;;;;;;;8.35;3.58;;;;;;;;;;5031985;28;20021;-66
2024/01/06 13:24:32;;;;;;;7.22;3.55;;;;;;;;;;5030617;28;20029;-66
2024/01/06 13:26:58;;;;;;;7.38;3.72;;;;;;;;;;5031207;28;20029;-66
2024/01/06 13:29:24;;;;;;;6.38;3.72;;;;;;;;;;5031394;28;20421;-66
2024/01/06 13:31:49;;;;;;;5.13;3.15;;;;;;;;;;5031130;28;20068;-66
2024/01/06 13:34:14;;;;;;;4.30;2.90;;;;;;;;;;5030882;28;20041;-66
2024/01/06 13:36:39;;;;;;;4.30;2.70;;;;;;;;;;5031941;28;20258;-66
2024/01/06 13:39:06;;;;;;;7.43;3.55;;;;;;;;;;5031554;28;20633;-66
2024/01/06 13:41:31;;;;;;;4.45;2.97;;;;;;;;;;5031028;28;20029;-66
2024/01/06 13:43:57;;;;;;;4.03;3.10;;;;;;;;;;5031636;28;20040;-66
2024/01/06 13:46:22;;;;;;;4.20;2.65;;;;;;;;;;5030284;28;20288;-66
2024/01/06 13:48:47;;;;;;;3.60;2.30;;;;;;;;;;5030647;28;20017;-66
2024/01/06 13:51:12;;;;;;;3.47;2.50;;;;;;;;;;5031863;28;20338;-66
2024/01/06 13:53:38;;;;;;;3.87;2.80;;;;;;;;;;5030597;28;20028;-66
2024/01/06 13:56:03;;;;;;;4.53;2.90;;;;;;;;;;5035529;28;20333;-66
2024/01/06 13:58:29;;;;;;;5.68;3.40;;;;;;;;;;5036165;28;20029;-66
2024/01/06 14:00:54;;;;;;;4.37;2.80;;;;;;;;;;5035057;28;20100;-72
2024/01/06 14:03:19;;;;;;;7.25;2.85;;;;;;;;;;5035562;28;20791;-75
2024/01/06 14:05:44;;;;;;;3.70;2.45;;;;;;;;;;5035366;28;20053;-73
2024/01/06 14:08:10;;;;;;;5.18;2.55;;;;;;;;;;5034748;28;20024;-74
2024/01/06 14:10:35;;;;;;;4.90;2.53;;;;;;;;;;5035293;28;20527;-74
2024/01/06 14:13:00;;;;;;;4.30;2.40;;;;;;;;;;5034746;28;20093;-74
2024/01/06 14:15:26;;;;;;;3.07;2.40;;;;;;;;;;5034278;28;20282;-74
2024/01/06 14:17:52;;;;;;;5.95;2.58;;;;;;;;;;5035220;28;20695;-74
2024/01/06 14:20:18;;;;;;;5.63;2.40;;;;;;;;;;5035374;28;20112;-74
2024/01/06 14:22:44;;;;;;;5.50;2.10;;;;;;;;;;5034594;28;20362;-74
2024/01/06 14:25:09;;;;;;;4.03;2.20;;;;;;;;;;5034745;28;20167;-74
2024/01/06 14:27:34;;;;;;;3.00;2.30;;;;;;;;;;5033293;28;20503;-75
2024/01/06 14:30:00;;;;;;;4.68;2.58;;;;;;;;;;5034948;28;20746;-74
2024/01/06 14:32:25;;;;;;;6.27;1.93;;;;;;;;;;5035226;28;20025;-74